Airfield :
LOGIN :

Register | Disclaimer

   EN    FR    IT 

 










Legend :    VFR   Marginal VFR   IFR   Intensive IFR   Very Intensive IFR
Visi :
Ceiling :
>= 8 km
>= 3000ft
5 to 8 km
1000 to 3000 ft
1500m to 5 km
500 to 1000 ft
800 to 1500m
200 to 500 ft
< 800m
< 200 ft
Symbols :   Thunderstorms  Fog  Heavy snow  Heavy precipitations  Wind > 20 kt
SIGMETs :     Misc.  Thunderstorms  Icing  Turbulence  Mountain Waves  Volcanic Ashes







- Airport Elevation : 49 ft
- IATA code : GLZ


EHGR - Gilze-Rijen Airbase

CURRENT METAR :
  • 210155Z AUTO 02006KT 9999 NCD 09/03 Q1024 BLU

EXPIRED METARs :
  • 210125Z AUTO 03006KT 360V070 9999 NCD 09/03 Q1025 BLU
  • 210055Z AUTO 02007KT 330V060 9999 NCD 10/03 Q1025 BLU
  • 210025Z AUTO 02006KT 350V070 9999 NCD 10/03 Q1025 BLU
  • 202355Z AUTO 03006KT 9999 SCT370 11/03 Q1026 BLU
  • 202325Z AUTO 04006KT 350V090 9999 NCD 12/04 Q1026 BLU
  • 202255Z AUTO 05006KT 350V110 9999 NCD 14/04 Q1026 BLU

Expired Forecast.
No reported NOTAMs for that airfield.



MET'MAP, your aeronautical weather chart ! - Copyright ORBIFLY December 2007 - Disclaimer

ORBIFLY MET'MAP TEAM :

Programming & Development : Alexandra Zaïnal
Concept & Development : Baudouin d'Aumeries
Co-Development & Prog : Marc-Olivier Méhu
Technical & hardware support : Manuel Goepfert

Contact : metmap@orbifly.com




SOURCES & CREDITS :

   NOAA